• Join FlightAware (Why Join?)
  • Login
  • US Flag 
01:12AM EDT


 

Airport Tracker/Info


-or-


 

Live Flight TrackerFlight Track Log ✈ ASQ2524 ✈ 15-Jul-2013 ✈ KBRO - KDFW

Flight Track Log - Related Links

Times and Time Zones

All times are in EDT time to prevent confusion due to time zone crossing. See the ASQ2524 flight status page for this flight to view local times or setup timezone preferences in your user account.

Time Position Orientation Groundspeed Altitude Reporting Facility
EDT Latitude Longitude Course Direction KTS MPH feet Rate Location/Type
07:57PM 27.2164 -97.4333 North  Level FlightAware Approximate
07:58PM 27.2836 -97.4333 North  Level FlightAware Approximate
07:59PM 27.3507 -97.4333 360° North  Level FlightAware Approximate
08:00PM 27.4179 -97.4333 North  Level FlightAware Approximate
08:01PM 27.4850 -97.4333 360° North  Level FlightAware Approximate
08:02PM 27.5522 -97.4333 360° North  Level FlightAware Approximate
08:03PM 27.6193 -97.4333 North  Level FlightAware Approximate
08:04PM 27.6864 -97.4333 360° North  Level FlightAware Approximate
08:05PM 27.7536 -97.4333 North  Level FlightAware Approximate
08:06PM 27.8207 -97.4333 360° North  Level FlightAware Approximate
08:07PM 27.8879 -97.4333 North  Level FlightAware Approximate
08:08PM 27.9491 -97.4613 333° Northwest  Level FlightAware Approximate
08:09PM 28.0091 -97.4956 333° Northwest  Level FlightAware Approximate
08:10PM 28.0690 -97.5298 333° Northwest  Level FlightAware Approximate
08:11PM 28.1290 -97.5642 333° Northwest  Level FlightAware Approximate
08:12PM 28.1881 -97.6002 332° Northwest  Level FlightAware Approximate
08:13PM 28.2472 -97.6365 332° Northwest  Level FlightAware Approximate
08:14PM 28.3062 -97.6728 332° Northwest  Level FlightAware Approximate
08:15PM 28.3652 -97.7091 332° Northwest  Level FlightAware Approximate
08:16PM 28.4243 -97.7454 332° Northwest  Level FlightAware Approximate
08:17PM 28.4833 -97.7818 332° Northwest  Level FlightAware Approximate
08:18PM 28.5423 -97.8183 332° Northwest  Level FlightAware Approximate
08:19PM 28.6019 -97.8536 333° Northwest  Level FlightAware Approximate
08:20PM 28.6618 -97.8880 333° Northwest  Level FlightAware Approximate
08:21PM 28.7218 -97.9225 333° Northwest  Level FlightAware Approximate
08:22PM 28.7817 -97.9571 333° Northwest  Level FlightAware Approximate
08:23PM 28.8416 -97.9917 333° Northwest  Level FlightAware Approximate
08:24PM 28.9015 -98.0263 333° Northwest  Level FlightAware Approximate
08:25PM 28.9614 -98.0610 333° Northwest  Level FlightAware Approximate
08:26PM 29.0213 -98.0956 333° Northwest  Level FlightAware Approximate
08:27PM 29.0812 -98.1302 333° Northwest  Level FlightAware Approximate
08:28PM 29.1412 -98.1649 333° Northwest  Level FlightAware Approximate
08:29PM 29.2011 -98.1996 333° Northwest  Level FlightAware Approximate
08:30PM 29.2610 -98.2343 333° Northwest  Level FlightAware Approximate
08:31PM 29.3209 -98.2691 333° Northwest  Level FlightAware Approximate
08:32PM 29.3809 -98.3037 333° Northwest  Level FlightAware Approximate
08:33PM 29.4408 -98.3384 333° Northwest  Level FlightAware Approximate
08:34PM 29.5008 -98.3731 333° Northwest  Level FlightAware Approximate
08:35PM 29.5608 -98.4079 333° Northwest  Level FlightAware Approximate
08:36PM 29.6207 -98.4427 333° Northwest  Level FlightAware Approximate
08:37PM 29.6861 -98.4442 North  Level FlightAware Approximate
08:38PM 29.7529 -98.4367 North  Level FlightAware Approximate
08:39PM 29.8197 -98.4293 North  Level FlightAware Approximate
08:40PM 29.8866 -98.4219 North  Level FlightAware Approximate
08:41PM 29.9532 -98.4127 10° North  Level FlightAware Approximate
08:42PM 30.0194 -98.3995 10° North  Level FlightAware Approximate
08:43PM 30.0855 -98.3862 10° North  Level FlightAware Approximate
08:44PM 30.1519 -98.3747 North  Level FlightAware Approximate
08:45PM 30.2184 -98.3636 North  Level FlightAware Approximate
08:46PM 30.2848 -98.3526 North  Level FlightAware Approximate
08:47PM 30.3513 -98.3415 North  Level FlightAware Approximate
08:48PM 30.4178 -98.3310 North  Level FlightAware Approximate
08:49PM 30.4845 -98.3223 North  Level FlightAware Approximate
08:50PM 30.5512 -98.3135 North  Level FlightAware Approximate
08:51PM 30.6180 -98.3047 North  Level FlightAware Approximate
08:52PM 30.6847 -98.2960 North  Level FlightAware Approximate
08:53PM 30.7514 -98.2872 North  Level FlightAware Approximate
08:54PM 30.8181 -98.2784 North  Level FlightAware Approximate
08:55PM 30.8848 -98.2696 North  Level FlightAware Approximate
08:56PM 30.9515 -98.2607 North  Level FlightAware Approximate
08:57PM 31.0182 -98.2519 North  Level FlightAware Approximate
08:58PM 31.0850 -98.2430 North  Level FlightAware Approximate
08:59PM 31.1517 -98.2342 North  Level FlightAware Approximate
09:00PM 31.2184 -98.2253 North  Level FlightAware Approximate
09:01PM 31.2851 -98.2162 12° North  Level FlightAware Approximate
09:02PM 31.3507 -98.2000 North  Level FlightAware Approximate
09:03PM 31.4166 -98.1889 16° North  Level FlightAware Approximate
09:04PM 31.4825 -98.1751 North  Level FlightAware Approximate
09:05PM 31.5479 -98.1594 23° Northeast  Level FlightAware Approximate
09:06PM 31.6097 -98.1285 23° Northeast  Level FlightAware Approximate
09:07PM 31.6715 -98.0976 23° Northeast  Level FlightAware Approximate
09:08PM 31.7339 -98.0688 20° North  Level FlightAware Approximate
09:09PM 31.7970 -98.0418 20° North  Level FlightAware Approximate
09:10PM 31.8592 -98.0121 23° Northeast  Level FlightAware Approximate
09:11PM 31.9208 -97.9806 29° Northeast  Level FlightAware Approximate
09:12PM 31.9803 -97.9445 19° North  Level FlightAware Approximate
09:12PM 25.8994 -97.4178 48° Northeast 144 166 400  Level Houston Center
09:12PM 25.9097 -97.3953 63° Northeast 159 183 1,900 2,100 Climbing Houston Center
09:13PM 32.0439 -97.9191 19° North  Level FlightAware Approximate
09:13PM 25.9767 -97.3911 North 271 312 4,100  Level Houston Center
09:14PM 32.1059 -97.8887 23° Northeast  Level FlightAware Approximate
09:14PM 26.0525 -97.3922 359° North 288 331 6,900  Level Houston Center
09:15PM 32.1637 -97.8507 45° Northeast  Level FlightAware Approximate
09:15PM 26.1411 -97.3942 359° North 294 338 9,700  Level Houston Center
09:16PM 32.2115 -97.7950 45° Northeast  Level FlightAware Approximate
09:17PM 32.2587 -97.7385 48° Northeast  Level FlightAware Approximate
09:17PM 26.2758 -97.3975 359° North 337 388 11,900  Level Houston Center
09:18PM 26.3803 -97.4003 359° North 370 426 13,200 1,260 Climbing Houston Center
09:19PM 26.4886 -97.4036 358° North 386 444 14,500 1,260 Climbing Houston Center
09:20PM 26.6097 -97.4069 359° North 400 460 15,900 1,260 Climbing Houston Center
09:21PM 26.7211 -97.4103 358° North 402 463 17,100 1,020 Climbing Houston Center
09:22PM 26.8358 -97.4133 359° North 410 472 18,100 960 Climbing Houston Center
09:23PM 26.9594 -97.4164 359° North 413 475 19,100 840 Climbing Houston Center
09:24PM 27.0742 -97.4197 359° North 411 473 19,900 660 Climbing Houston Center
09:25PM 27.1819 -97.4228 359° North 409 471 20,500 600 Climbing Houston Center
09:26PM 27.2986 -97.4264 358° North 416 479 21,200 660 Climbing Houston Center
09:27PM 27.4158 -97.4303 358° North 420 483 21,900 840 Climbing Houston Center
09:28PM 27.5333 -97.4328 359° North 422 486 23,000 1,080 Climbing Houston Center
09:29PM 27.6656 -97.4550 352° North 406 467 24,200 780 Climbing Houston Center
09:30PM 27.7725 -97.5072 337° Northwest 415 478 24,700 480 Climbing Houston Center
09:31PM 27.8817 -97.5606 337° Northwest 423 487 25,200 480 Climbing Houston Center
09:32PM 27.9983 -97.6189 336° Northwest 434 499 25,700 480 Climbing Houston Center
09:33PM 28.1094 -97.6747 336° Northwest 435 501 26,200 480 Climbing Houston Center
09:34PM 28.2200 -97.7308 336° Northwest 436 502 26,700 480 Climbing Houston Center
09:35PM 28.3303 -97.7856 336° Northwest 433 498 27,200 480 Climbing Houston Center
09:36PM 28.4425 -97.8431 336° Northwest 438 504 27,700 480 Climbing Houston Center
09:37PM 28.5525 -97.8983 336° Northwest 432 497 28,200 480 Climbing Houston Center
09:38PM 28.6631 -97.9539 336° Northwest 433 498 28,700 360 Climbing Houston Center
09:39PM 28.7722 -98.0106 336° Northwest 429 494 29,000 120 Climbing Houston Center
09:40PM 28.8831 -98.0664 336° Northwest 432 497 29,000  Level Houston Center
09:41PM 29.0150 -98.1353 335° Northwest 441 507 29,000  Level Houston Center
09:42PM 29.1269 -98.1922 336° Northwest 441 507 29,000  Level Houston Center
09:43PM 29.2469 -98.2544 336° Northwest 440 506 29,000  Level Houston Center
09:44PM 29.3592 -98.3119 336° Northwest 441 507 29,000  Level Houston Center
09:45PM 29.4786 -98.3375 349° North 450 518 29,000  Level Houston Center
09:46PM 29.6142 -98.3269 North 459 528 29,000  Level Houston Center
09:47PM 29.7392 -98.3197 North 454 522 29,000  Level Houston Center
09:48PM 29.8647 -98.3097 North 455 524 29,000  Level Houston Center
09:49PM 30.0003 -98.2989 North 454 522 29,000  Level Houston Center
09:50PM 30.1247 -98.2897 North 448 516 29,000  Level Houston Center
09:51PM 30.2486 -98.2803 North 446 513 29,000  Level Houston Center
09:52PM 30.3653 -98.2708 North 448 516 29,000  Level Houston Center
09:54PM 30.4900 -98.2622 North 444 511 29,000  Level Houston Center
09:55PM 30.6161 -98.2525 North 446 513 29,000  Level Houston Center
09:56PM 30.7422 -98.2422 North 447 514 29,000  Level Houston Center
09:57PM 30.8706 -98.2331 North 451 519 29,000  Level Houston Center
09:58PM 30.9967 -98.2231 North 449 517 29,000  Level Houston Center
09:59PM 31.1333 -98.2142 North 444 511 29,000  Level Fort Worth Center
10:00PM 31.2547 -98.1714 17° North 443 510 29,000  Level Fort Worth Center
10:01PM 31.3700 -98.1067 26° Northeast 450 518 29,000  Level Fort Worth Center
10:02PM 31.4872 -98.0444 24° Northeast 456 525 29,000 -60 Level Fort Worth Center
10:03PM 31.6067 -97.9792 25° Northeast 462 532 28,900 -1,320 Descending Fort Worth Center
10:04PM 31.7258 -97.9117 26° Northeast 462 532 26,400 -2,820 Descending Fort Worth Center
10:05PM 31.8514 -97.8464 24° Northeast 471 542 23,300 -3,060 Descending Fort Worth Center
10:06PM 31.9706 -97.7808 25° Northeast 471 542 20,300 -2,820 Descending Fort Worth Center
10:07PM 32.0836 -97.7200 25° Northeast 455 524 17,700 -3,000 Descending Fort Worth Center
10:08PM 32.1922 -97.6589 25° Northeast 441 507 14,400 -3,060 Descending Fort Worth Center
10:09PM 32.2967 -97.6028 24° Northeast 421 484 11,600 -1,740 Descending Fort Worth Center
10:10PM 32.3992 -97.5464 25° Northeast 399 459 11,000 -300 Descending Fort Worth Center
10:11PM 32.4931 -97.4800 31° Northeast 399 459 11,000  Level Fort Worth Center
10:12PM 32.5703 -97.3864 46° Northeast 392 451 11,000  Level Fort Worth Center
10:13PM 32.6392 -97.3025 46° Northeast 387 445 11,000  Level Fort Worth Center
10:14PM 32.7017 -97.2258 46° Northeast 320 368 11,000  Level Fort Worth Center
10:15PM 32.7558 -97.1764 38° Northeast 270 311 11,000 -540 Level Fort Worth Center
10:16PM 32.8372 -97.1686 North 251 289 10,000 -1,500 Descending Fort Worth Center
10:17PM 32.9167 -97.1636 North 256 295 8,100 -1,800 Descending Fort Worth Center
10:18PM 32.9833 -97.1533 North 269 310 6,400 -1,860 Descending Fort Worth Center
10:19PM 33.0481 -97.1433 North 246 283 4,400 -1,980 Descending Fort Worth Center
10:19PM 33.0667 -97.0833 70° East 213 245 3,000 -1,140 Descending Dallas / Fort Worth TRACON
10:20PM 33.0167 -97.0500 151° Southeast 171 197 2,500 -600 Descending Dallas / Fort Worth TRACON
10:21PM 32.9833 -97.0500 180° South 152 175 1,900 -720 Descending Dallas / Fort Worth TRACON
10:23PM 32.9333 -97.0500 180° South 138 159 1,000 -720 Descending Dallas / Fort Worth TRACON